Time;durP1;ratioP1;P1;durP2;ratioP2;P2;SDS_P1;SDS_P2;PMS_P1;PMS_P2;Temp;Humidity;BMP_temperature;BMP_pressure;BME280_temperature;BME280_humidity;BME280_pressure;Samples;Min_cycle;Max_cycle;Signal;HPM_P1;HPM_P2
2021/11/07 00:03:28;;;;;;;12.68;8.98;;;4.30;99.90;;;;;;4985543;28;20291;-81
2021/11/07 00:06:12;;;;;;;11.20;9.60;;;4.20;99.90;;;;;;5025414;28;20202;-82
2021/11/07 00:14:06;;;;;;;15.73;9.43;;;4.10;99.90;;;;;;5021784;28;20489;-80
2021/11/07 00:16:36;;;;;;;17.02;11.48;;;4.00;99.90;;;;;;5026394;28;20245;-80
2021/11/07 00:21:48;;;;;;;15.73;9.50;;;4.20;99.90;;;;;;5026162;28;20365;-79
2021/11/07 00:24:30;;;;;;;9.77;8.50;;;4.10;99.90;;;;;;5008945;28;20253;-80
2021/11/07 00:29:49;;;;;;;11.55;8.50;;;4.00;99.90;;;;;;5019118;28;20189;-80
2021/11/07 00:37:21;;;;;;;12.63;9.38;;;3.90;99.90;;;;;;5026948;28;20243;-80
2021/11/07 00:40:07;;;;;;;14.40;10.52;;;3.80;99.90;;;;;;5026891;28;20190;-79
2021/11/07 00:42:43;;;;;;;13.48;10.50;;;3.80;99.90;;;;;;4989143;28;20202;-79
2021/11/07 00:48:07;;;;;;;14.57;9.23;;;4.00;99.90;;;;;;5029157;28;20215;-81
2021/11/07 00:54:02;;;;;;;12.82;9.38;;;3.80;99.90;;;;;;5001325;28;20431;-79
2021/11/07 00:56:49;;;;;;;12.90;9.98;;;4.20;99.90;;;;;;5007407;28;20245;-79
2021/11/07 01:02:13;;;;;;;10.98;7.63;;;4.30;99.90;;;;;;5019147;28;20200;-80
2021/11/07 01:04:44;;;;;;;13.55;9.48;;;4.50;99.90;;;;;;5019834;28;20278;-80
2021/11/07 01:07:12;;;;;;;22.48;10.52;;;4.30;99.90;;;;;;5025972;28;20211;-81
2021/11/07 01:09:40;;;;;;;14.18;9.55;;;4.20;99.90;;;;;;5024531;28;20207;-80
2021/11/07 01:12:09;;;;;;;12.88;8.73;;;4.10;99.90;;;;;;5007370;28;20215;-81
2021/11/07 01:14:38;;;;;;;13.25;9.75;;;4.10;99.90;;;;;;5023121;28;20284;-81
2021/11/07 01:17:06;;;;;;;13.80;9.75;;;4.30;99.90;;;;;;5012831;28;20203;-80
2021/11/07 01:19:35;;;;;;;17.17;10.48;;;4.20;99.90;;;;;;5023669;28;20211;-80
2021/11/07 01:22:05;;;;;;;17.08;10.73;;;4.30;99.90;;;;;;5006633;28;20504;-80
2021/11/07 01:24:35;;;;;;;17.42;11.30;;;4.30;99.90;;;;;;5006591;28;20431;-81
2021/11/07 01:27:13;;;;;;;13.45;9.73;;;4.30;99.90;;;;;;5000137;28;20214;-81
2021/11/07 01:29:45;;;;;;;15.18;10.40;;;4.30;99.90;;;;;;5023822;28;20558;-81
2021/11/07 01:32:20;;;;;;;18.42;11.60;;;4.40;99.90;;;;;;5023836;28;20203;-80
2021/11/07 01:35:03;;;;;;;21.33;11.07;;;4.40;99.90;;;;;;5005505;28;20221;-80
2021/11/07 01:37:36;;;;;;;13.65;9.13;;;4.20;99.90;;;;;;5020146;28;20276;-80
2021/11/07 01:40:11;;;;;;;12.35;8.93;;;4.00;99.90;;;;;;5008651;28;20469;-79
2021/11/07 01:42:42;;;;;;;19.45;11.73;;;4.10;99.90;;;;;;5027513;28;20217;-79
2021/11/07 01:45:25;;;;;;;11.98;9.07;;;4.10;99.90;;;;;;5028138;28;20203;-79
2021/11/07 01:48:09;;;;;;;13.30;9.43;;;4.30;99.90;;;;;;5027611;28;20203;-79
2021/11/07 01:50:42;;;;;;;14.52;9.95;;;4.40;99.90;;;;;;5027884;28;20603;-79
2021/11/07 01:53:21;;;;;;;15.30;9.35;;;4.20;99.90;;;;;;5007416;28;20285;-79
2021/11/07 01:55:49;;;;;;;13.40;9.57;;;4.10;99.90;;;;;;5009066;28;20232;-78
2021/11/07 01:58:17;;;;;;;14.20;9.07;;;3.70;99.90;;;;;;4995494;28;20210;-78
2021/11/07 02:00:45;;;;;;;16.55;8.23;;;3.40;99.90;;;;;;5024581;28;20260;-78
2021/11/07 02:03:13;;;;;;;12.32;8.82;;;3.50;99.90;;;;;;5007474;28;20202;-78
2021/11/07 02:05:41;;;;;;;15.90;8.65;;;3.50;99.90;;;;;;5024847;28;20252;-79
2021/11/07 02:08:09;;;;;;;14.05;8.77;;;3.50;99.90;;;;;;5006443;28;20685;-79
2021/11/07 02:10:38;;;;;;;13.90;9.57;;;3.50;99.90;;;;;;5013510;28;20261;-78
2021/11/07 02:13:07;;;;;;;13.32;8.95;;;3.80;99.90;;;;;;5018537;28;20206;-79
2021/11/07 02:15:35;;;;;;;10.50;8.70;;;3.80;99.90;;;;;;5004041;28;20230;-79
2021/11/07 02:18:03;;;;;;;16.08;10.27;;;3.80;99.90;;;;;;5021821;28;20206;-79
2021/11/07 02:20:34;;;;;;;10.05;9.00;;;3.80;99.90;;;;;;5019761;28;20493;-79
2021/11/07 02:23:07;;;;;;;14.00;9.95;;;3.90;99.90;;;;;;5008819;28;20421;-80
2021/11/07 02:25:35;;;;;;;12.05;10.23;;;4.00;99.90;;;;;;5014838;28;20198;-80
2021/11/07 02:28:06;;;;;;;11.75;8.63;;;4.00;99.90;;;;;;5018265;28;20206;-80
2021/11/07 02:30:35;;;;;;;10.25;7.50;;;4.00;99.90;;;;;;5010360;28;20213;-79
2021/11/07 02:33:03;;;;;;;15.85;9.90;;;3.90;99.90;;;;;;5023206;28;20202;-79
2021/11/07 02:35:31;;;;;;;11.38;8.23;;;3.90;99.90;;;;;;5006887;28;20273;-81
2021/11/07 02:37:59;;;;;;;12.95;8.90;;;3.90;99.90;;;;;;5010111;28;20200;-81
2021/11/07 02:40:26;;;;;;;12.60;8.13;;;4.10;99.90;;;;;;5021954;28;20201;-80
2021/11/07 02:42:53;;;;;;;14.02;8.30;;;4.30;99.90;;;;;;5023093;28;20249;-81
2021/11/07 02:45:21;;;;;;;11.80;9.05;;;4.30;99.90;;;;;;5020769;28;20555;-80
2021/11/07 02:47:51;;;;;;;13.38;8.98;;;4.20;99.90;;;;;;5010306;28;20226;-80
2021/11/07 02:50:19;;;;;;;12.52;7.93;;;4.10;99.90;;;;;;5029265;28;20214;-80
2021/11/07 02:52:48;;;;;;;11.35;8.45;;;4.10;99.90;;;;;;5013205;28;20199;-80
2021/11/07 02:55:17;;;;;;;13.85;9.70;;;4.10;99.90;;;;;;5028908;28;20443;-80
2021/11/07 02:57:47;;;;;;;10.55;8.55;;;4.00;99.90;;;;;;5029286;28;20496;-81
2021/11/07 03:00:16;;;;;;;15.45;9.38;;;3.90;99.90;;;;;;5025646;28;20233;-79
2021/11/07 03:02:44;;;;;;;9.65;8.40;;;3.90;99.90;;;;;;5023210;28;20210;-79
2021/11/07 03:05:13;;;;;;;10.30;8.57;;;4.10;99.90;;;;;;5024329;28;20196;-79
2021/11/07 03:07:42;;;;;;;14.70;9.00;;;4.20;99.90;;;;;;5024302;28;20202;-79
2021/11/07 03:10:12;;;;;;;10.73;8.63;;;4.20;99.90;;;;;;5024913;28;20201;-79
2021/11/07 03:12:39;;;;;;;10.60;7.88;;;4.30;99.90;;;;;;5024763;28;20205;-79
2021/11/07 03:15:11;;;;;;;9.93;8.93;;;4.40;99.90;;;;;;5023515;28;20398;-80
2021/11/07 03:17:38;;;;;;;12.50;7.97;;;4.50;99.90;;;;;;5005763;28;20202;-79
2021/11/07 03:20:08;;;;;;;9.38;7.82;;;4.60;99.90;;;;;;5017474;28;20496;-81
2021/11/07 03:22:36;;;;;;;14.05;9.55;;;4.70;99.90;;;;;;5026436;28;20207;-80
2021/11/07 03:25:04;;;;;;;11.95;8.02;;;4.90;99.90;;;;;;5023263;28;20249;-81
2021/11/07 03:27:43;;;;;;;12.00;8.40;;;4.70;99.90;;;;;;5005126;28;20199;-79
2021/11/07 03:30:28;;;;;;;11.80;8.88;;;4.60;99.90;;;;;;5031815;28;20198;-80
2021/11/07 03:33:06;;;;;;;10.25;7.90;;;4.60;99.90;;;;;;5025475;28;20241;-81
2021/11/07 03:35:34;;;;;;;10.05;7.95;;;4.60;99.90;;;;;;5011907;28;20265;-81
2021/11/07 03:38:02;;;;;;;11.48;8.45;;;4.80;99.90;;;;;;5027750;28;20201;-80
2021/11/07 03:40:30;;;;;;;8.25;7.38;;;4.50;99.90;;;;;;5030848;28;20207;-79
2021/11/07 03:42:58;;;;;;;10.43;7.68;;;4.70;99.90;;;;;;5011247;28;20196;-80
2021/11/07 03:45:26;;;;;;;10.65;7.88;;;4.60;99.90;;;;;;5010667;28;20206;-80
2021/11/07 03:47:59;;;;;;;11.45;8.18;;;4.70;99.90;;;;;;5025752;28;20524;-78
2021/11/07 03:50:27;;;;;;;10.88;8.15;;;4.80;99.90;;;;;;5027548;28;20206;-80
2021/11/07 03:52:56;;;;;;;8.90;7.53;;;5.00;99.90;;;;;;5034657;28;20203;-80
2021/11/07 03:55:24;;;;;;;10.25;7.93;;;5.20;99.90;;;;;;5011511;28;20464;-78
2021/11/07 03:57:52;;;;;;;12.93;8.48;;;5.10;99.90;;;;;;5025473;28;20208;-79
2021/11/07 04:00:20;;;;;;;11.75;7.75;;;4.70;99.90;;;;;;5025103;28;20239;-78
2021/11/07 04:02:49;;;;;;;11.07;8.65;;;4.60;99.90;;;;;;5026608;28;20210;-79
2021/11/07 04:05:16;;;;;;;8.00;7.20;;;4.60;99.90;;;;;;5026625;28;20203;-80
2021/11/07 04:07:44;;;;;;;8.38;6.38;;;4.70;99.90;;;;;;5026680;28;20250;-80
2021/11/07 04:10:12;;;;;;;8.43;7.05;;;4.70;99.90;;;;;;5026411;28;20204;-79
2021/11/07 04:12:40;;;;;;;7.20;6.38;;;4.70;99.90;;;;;;5026332;28;20245;-80
2021/11/07 04:15:08;;;;;;;10.18;7.18;;;4.80;99.90;;;;;;4998052;28;20536;-78
2021/11/07 04:17:37;;;;;;;9.70;6.95;;;4.70;99.90;;;;;;5008995;28;20199;-78
2021/11/07 04:20:06;;;;;;;11.65;7.30;;;4.70;99.90;;;;;;5025353;28;20208;-79
2021/11/07 04:22:33;;;;;;;9.85;7.43;;;4.80;99.90;;;;;;5025963;28;20202;-79
2021/11/07 04:25:01;;;;;;;7.40;6.63;;;4.80;99.90;;;;;;5026357;28;20220;-80
2021/11/07 04:27:29;;;;;;;7.22;6.50;;;4.90;99.90;;;;;;5025937;28;20195;-79
2021/11/07 04:29:58;;;;;;;11.35;8.80;;;4.80;99.90;;;;;;5008872;28;20206;-79
2021/11/07 04:32:25;;;;;;;8.88;6.95;;;4.70;99.90;;;;;;5008710;28;20203;-79
2021/11/07 04:34:52;;;;;;;9.80;6.53;;;4.80;99.90;;;;;;5008344;28;20207;-79
2021/11/07 04:37:21;;;;;;;10.43;7.50;;;4.90;99.90;;;;;;5020246;28;20567;-78
2021/11/07 04:39:48;;;;;;;7.32;5.68;;;4.80;99.90;;;;;;5007517;28;20556;-79
2021/11/07 04:42:16;;;;;;;7.97;6.68;;;5.00;99.90;;;;;;5025594;28;20251;-79
2021/11/07 04:44:44;;;;;;;8.80;5.70;;;5.20;99.90;;;;;;5026332;28;20235;-79
2021/11/07 04:47:11;;;;;;;6.85;5.65;;;5.20;99.90;;;;;;5022687;28;20210;-78
2021/11/07 04:49:39;;;;;;;12.32;5.95;;;5.10;99.90;;;;;;5020248;28;20259;-79
2021/11/07 04:52:06;;;;;;;9.55;6.40;;;5.20;99.90;;;;;;5025013;28;20271;-78
2021/11/07 04:54:33;;;;;;;8.68;6.45;;;5.30;99.90;;;;;;5007987;28;20554;-78
2021/11/07 04:57:02;;;;;;;6.25;5.60;;;5.40;99.90;;;;;;5024915;28;20228;-79
2021/11/07 04:59:29;;;;;;;8.23;5.25;;;5.40;99.90;;;;;;4991005;28;20197;-80
2021/11/07 05:01:57;;;;;;;6.72;5.68;;;5.30;99.90;;;;;;5011163;28;20203;-80
2021/11/07 05:04:24;;;;;;;6.18;4.82;;;5.40;99.90;;;;;;5009389;28;20201;-80
2021/11/07 05:06:52;;;;;;;7.65;6.43;;;5.30;99.90;;;;;;5026938;28;20497;-81
2021/11/07 05:09:21;;;;;;;13.43;5.68;;;5.40;99.90;;;;;;4994817;28;20211;-80
2021/11/07 05:11:49;;;;;;;6.25;5.57;;;5.30;99.90;;;;;;5025396;28;20247;-79
2021/11/07 05:14:16;;;;;;;11.40;6.72;;;5.40;99.90;;;;;;5024982;28;20211;-80
2021/11/07 05:16:43;;;;;;;10.15;6.63;;;5.40;99.90;;;;;;5018793;28;20225;-80
2021/11/07 05:19:11;;;;;;;7.68;5.47;;;5.40;99.90;;;;;;5008156;28;20494;-80
2021/11/07 05:21:40;;;;;;;7.82;5.97;;;5.20;99.90;;;;;;5007850;28;20225;-79
2021/11/07 05:24:07;;;;;;;9.82;6.65;;;5.20;99.90;;;;;;5024527;28;20249;-79
2021/11/07 05:26:35;;;;;;;8.32;6.55;;;5.10;99.90;;;;;;5019384;28;20207;-79
2021/11/07 05:29:05;;;;;;;6.70;5.97;;;5.10;99.90;;;;;;5023978;28;20448;-79
2021/11/07 05:31:33;;;;;;;10.15;6.78;;;5.20;99.90;;;;;;5024446;28;20234;-79
2021/11/07 05:34:01;;;;;;;6.85;5.30;;;5.20;99.90;;;;;;5024549;28;20211;-80
2021/11/07 05:36:28;;;;;;;5.82;5.32;;;5.30;99.90;;;;;;5007449;28;20531;-79
2021/11/07 05:38:55;;;;;;;7.07;6.32;;;5.40;99.90;;;;;;5024618;28;20255;-78
2021/11/07 05:41:23;;;;;;;8.23;6.20;;;5.60;99.90;;;;;;5025114;28;20346;-79
2021/11/07 05:43:50;;;;;;;14.00;6.28;;;5.70;99.90;;;;;;5024311;28;20207;-79
2021/11/07 05:46:17;;;;;;;10.57;6.63;;;5.90;99.90;;;;;;5024561;28;20335;-80
2021/11/07 05:48:44;;;;;;;9.15;7.28;;;6.10;99.90;;;;;;5024068;28;20259;-80
2021/11/07 05:51:12;;;;;;;8.10;5.93;;;6.20;99.90;;;;;;5005184;28;20407;-79
2021/11/07 05:53:40;;;;;;;9.32;5.90;;;6.20;99.90;;;;;;5023440;28;20569;-80
2021/11/07 05:56:07;;;;;;;6.35;5.60;;;6.30;99.90;;;;;;5023166;28;20273;-80
2021/11/07 05:58:35;;;;;;;10.70;6.43;;;6.40;99.90;;;;;;5006546;28;20216;-79
2021/11/07 06:01:02;;;;;;;5.80;5.20;;;6.50;99.90;;;;;;5004542;28;20246;-78
2021/11/07 06:03:30;;;;;;;9.60;5.45;;;6.60;99.90;;;;;;4993602;28;20270;-78
2021/11/07 06:05:57;;;;;;;7.90;5.70;;;6.70;99.90;;;;;;5017084;28;20335;-79
2021/11/07 06:08:24;;;;;;;10.07;7.00;;;6.70;99.90;;;;;;5007003;28;20212;-78
2021/11/07 06:10:51;;;;;;;8.40;6.72;;;6.70;99.90;;;;;;5019469;28;20239;-79
2021/11/07 06:13:19;;;;;;;7.25;4.57;;;6.60;99.90;;;;;;5003991;28;20474;-79
2021/11/07 06:15:46;;;;;;;7.63;6.82;;;6.80;99.90;;;;;;5006936;28;20228;-79
2021/11/07 06:18:13;;;;;;;9.10;5.82;;;6.90;99.90;;;;;;5023534;28;20201;-79
2021/11/07 06:20:41;;;;;;;9.32;6.53;;;6.90;99.90;;;;;;5007915;28;20357;-80
2021/11/07 06:23:10;;;;;;;7.10;5.10;;;6.80;99.90;;;;;;5007036;28;20204;-80
2021/11/07 06:25:38;;;;;;;8.10;5.93;;;6.70;99.90;;;;;;5007594;28;20247;-80
2021/11/07 06:28:06;;;;;;;7.47;5.95;;;6.70;99.90;;;;;;4999127;28;20204;-79
2021/11/07 06:30:35;;;;;;;8.45;5.55;;;6.90;99.90;;;;;;5008151;28;20224;-80
2021/11/07 06:33:03;;;;;;;7.50;5.07;;;7.00;99.90;;;;;;5011901;28;20197;-79
2021/11/07 06:35:31;;;;;;;6.75;5.00;;;7.10;99.90;;;;;;5024572;28;20208;-79
2021/11/07 06:37:58;;;;;;;7.20;6.05;;;7.10;99.90;;;;;;5023853;28;20239;-79
2021/11/07 06:40:26;;;;;;;8.18;5.68;;;7.10;99.90;;;;;;5023854;28;20207;-79
2021/11/07 06:42:53;;;;;;;6.25;5.10;;;7.00;99.90;;;;;;5025674;28;20243;-81
2021/11/07 06:45:21;;;;;;;8.57;5.47;;;7.00;99.90;;;;;;5016255;28;20487;-80
2021/11/07 06:47:49;;;;;;;6.30;5.05;;;6.90;99.90;;;;;;5005848;28;20208;-81
2021/11/07 06:50:17;;;;;;;9.80;6.65;;;7.00;99.90;;;;;;5006099;28;20201;-79
2021/11/07 06:52:45;;;;;;;8.57;6.05;;;7.00;99.90;;;;;;5023460;28;20248;-79
2021/11/07 06:55:12;;;;;;;7.03;5.53;;;7.00;99.90;;;;;;5006370;28;20201;-78
2021/11/07 06:57:41;;;;;;;10.63;5.53;;;7.10;99.90;;;;;;5006770;28;20228;-80
2021/11/07 07:00:15;;;;;;;8.50;6.57;;;7.20;99.90;;;;;;5023719;28;20390;-80
2021/11/07 07:02:43;;;;;;;8.98;5.85;;;7.20;99.90;;;;;;5025602;28;20207;-79
2021/11/07 07:05:12;;;;;;;5.60;4.75;;;7.30;99.90;;;;;;5007460;28;20197;-80
2021/11/07 07:07:46;;;;;;;8.65;5.75;;;7.30;99.90;;;;;;5024215;28;20240;-80
2021/11/07 07:10:22;;;;;;;9.02;6.07;;;7.30;99.90;;;;;;5004094;28;20200;-79
2021/11/07 07:15:24;;;;;;;10.02;6.40;;;7.30;99.90;;;;;;5014982;28;20197;-79
2021/11/07 07:36:21;;;;;;;7.70;6.37;;;8.90;99.90;;;;;;4907867;28;3110015;-79
2021/11/07 07:38:48;;;;;;;7.90;5.97;;;9.10;99.90;;;;;;5024290;28;20205;-80
2021/11/07 07:41:16;;;;;;;6.22;5.35;;;9.40;99.90;;;;;;5006373;28;20204;-80
2021/11/07 07:43:43;;;;;;;9.75;5.93;;;9.20;99.90;;;;;;5022740;28;20201;-79
2021/11/07 07:46:13;;;;;;;8.27;6.13;;;9.50;99.90;;;;;;5023444;28;20240;-81
2021/11/07 07:48:43;;;;;;;8.43;5.47;;;10.20;99.90;;;;;;5023152;28;20428;-80
2021/11/07 07:51:12;;;;;;;8.88;6.07;;;10.00;99.90;;;;;;5004630;28;20201;-80
2021/11/07 07:53:41;;;;;;;6.53;4.75;;;9.70;99.90;;;;;;5005320;28;20209;-81
2021/11/07 07:56:09;;;;;;;5.60;4.50;;;9.60;99.90;;;;;;5003733;28;20549;-81
2021/11/07 07:58:38;;;;;;;8.80;5.95;;;9.40;99.90;;;;;;5014540;28;20438;-79
2021/11/07 08:01:07;;;;;;;7.25;6.55;;;9.50;99.90;;;;;;5004796;28;20193;-80
2021/11/07 08:03:35;;;;;;;6.95;5.15;;;9.60;99.90;;;;;;5022037;28;20200;-79
2021/11/07 08:06:02;;;;;;;5.95;4.40;;;9.70;99.90;;;;;;5022294;28;20206;-81
2021/11/07 08:08:30;;;;;;;5.93;4.80;;;9.80;99.90;;;;;;5005379;28;20496;-80
2021/11/07 08:10:57;;;;;;;4.72;3.78;;;9.80;99.90;;;;;;5023300;28;20213;-79
2021/11/07 08:13:25;;;;;;;6.47;4.18;;;9.80;99.90;;;;;;5022569;28;20227;-80
2021/11/07 08:15:53;;;;;;;7.03;4.45;;;10.00;99.90;;;;;;5008425;28;20212;-79
2021/11/07 08:18:21;;;;;;;5.75;4.82;;;10.60;99.90;;;;;;5007512;28;20205;-80
2021/11/07 08:20:49;;;;;;;6.47;5.40;;;11.70;99.90;;;;;;5026500;28;20204;-82
2021/11/07 08:23:21;;;;;;;5.75;5.15;;;12.50;99.90;;;;;;5025958;28;20195;-81
2021/11/07 08:25:50;;;;;;;5.10;4.47;;;12.80;99.90;;;;;;5009405;28;20250;-80
2021/11/07 08:28:20;;;;;;;5.00;4.40;;;13.00;99.90;;;;;;5026732;28;20207;-82
2021/11/07 08:30:53;;;;;;;5.80;4.95;;;12.80;99.90;;;;;;5026775;28;20208;-81
2021/11/07 08:33:21;;;;;;;6.45;4.63;;;12.30;99.90;;;;;;5020184;28;20441;-80
2021/11/07 08:35:49;;;;;;;5.68;4.13;;;11.70;99.90;;;;;;5023729;28;20257;-80
2021/11/07 08:38:24;;;;;;;6.75;4.95;;;11.40;99.90;;;;;;5019702;28;20265;-79
2021/11/07 08:41:04;;;;;;;8.82;6.15;;;11.10;99.90;;;;;;5020392;28;20214;-81
2021/11/07 09:05:49;;;;;;;13.23;6.20;;;9.60;99.90;;;;;;5018717;28;20208;-80
2021/11/07 09:08:18;;;;;;;5.95;4.72;;;9.50;99.90;;;;;;5025078;28;20206;-82
2021/11/07 09:10:46;;;;;;;8.50;6.18;;;9.50;99.90;;;;;;5019644;28;20206;-82
2021/11/07 09:13:14;;;;;;;6.45;5.38;;;9.50;99.90;;;;;;5002555;28;20257;-81
2021/11/07 09:15:44;;;;;;;8.38;6.25;;;9.40;99.90;;;;;;5008405;28;20454;-81
2021/11/07 09:18:12;;;;;;;9.18;6.57;;;9.40;99.90;;;;;;5018510;28;20395;-80
2021/11/07 09:23:31;;;;;;;8.18;6.70;;;9.20;99.90;;;;;;5016368;28;20511;-82
2021/11/07 09:28:37;;;;;;;8.65;6.00;;;9.30;99.90;;;;;;5019290;28;20307;-81
2021/11/07 09:31:16;;;;;;;7.13;5.72;;;9.30;99.90;;;;;;5023287;28;20502;-81
2021/11/07 09:33:54;;;;;;;8.70;5.68;;;9.40;99.90;;;;;;5002123;28;20263;-80
2021/11/07 09:36:34;;;;;;;6.53;5.78;;;9.30;99.90;;;;;;5022091;28;20431;-80
2021/11/07 09:42:30;;;;;;;8.05;5.53;;;9.50;99.90;;;;;;5017633;28;20201;-80
2021/11/07 09:44:26;;;;;;;7.75;6.05;;;9.50;99.90;;;;;;5016130;28;20491;-80
2021/11/07 09:47:00;;;;;;;7.57;5.60;;;9.50;99.90;;;;;;5025435;28;20300;-83
2021/11/07 09:49:33;;;;;;;7.45;5.53;;;9.50;99.90;;;;;;5025689;28;20510;-80
2021/11/07 09:52:11;;;;;;;10.80;6.40;;;9.50;99.90;;;;;;5008538;28;20380;-83
2021/11/07 09:54:45;;;;;;;7.35;5.90;;;9.50;99.90;;;;;;5008736;28;20197;-80
2021/11/07 09:57:17;;;;;;;5.22;4.70;;;9.50;99.90;;;;;;5008002;28;20224;-81
2021/11/07 09:59:44;;;;;;;7.30;5.57;;;9.50;99.90;;;;;;5026208;28;20556;-81
2021/11/07 10:02:12;;;;;;;6.72;5.40;;;9.40;99.90;;;;;;5014871;28;20243;-79
2021/11/07 10:04:41;;;;;;;7.45;5.30;;;9.40;99.90;;;;;;5025264;28;20236;-79
2021/11/07 10:07:18;;;;;;;6.30;5.70;;;9.30;99.90;;;;;;5028335;28;20205;-80
2021/11/07 10:09:52;;;;;;;6.95;6.07;;;9.30;99.90;;;;;;5026226;28;20235;-82
2021/11/07 10:12:30;;;;;;;7.35;5.95;;;9.30;99.90;;;;;;5018607;28;20193;-81
2021/11/07 10:15:00;;;;;;;6.55;4.70;;;9.40;99.90;;;;;;5015464;28;20450;-82
2021/11/07 10:17:46;;;;;;;10.82;7.25;;;9.50;99.90;;;;;;5017291;28;20546;-80
2021/11/07 10:20:26;;;;;;;6.53;5.53;;;9.50;99.90;;;;;;5022694;28;20191;-82
2021/11/07 10:23:12;;;;;;;7.85;5.93;;;9.40;99.90;;;;;;5017242;28;20363;-80
2021/11/07 10:25:52;;;;;;;6.70;5.95;;;9.40;99.90;;;;;;5019299;28;20213;-81
2021/11/07 10:28:33;;;;;;;8.18;6.05;;;9.30;99.90;;;;;;5007089;28;20204;-80
2021/11/07 10:31:12;;;;;;;7.50;6.25;;;9.30;99.90;;;;;;5014921;28;20326;-81
2021/11/07 10:37:23;;;;;;;10.20;7.20;;;9.30;99.90;;;;;;5018477;28;20213;-81
2021/11/07 10:53:15;;;;;;;11.30;7.15;;;9.60;99.90;;;;;;5022063;28;20208;-82
2021/11/07 10:55:49;;;;;;;8.23;7.43;;;9.70;99.90;;;;;;5010084;28;20211;-81
2021/11/07 10:58:28;;;;;;;8.13;7.30;;;10.10;99.90;;;;;;5023699;28;20209;-83
2021/11/07 11:00:58;;;;;;;9.45;7.10;;;10.30;99.90;;;;;;5020351;28;20205;-82
2021/11/07 11:03:27;;;;;;;9.35;8.30;;;10.60;99.90;;;;;;5013448;28;20552;-80
2021/11/07 11:06:15;;;;;;;9.15;6.50;;;10.80;99.90;;;;;;5022072;28;20198;-81
2021/11/07 11:09:07;;;;;;;7.95;6.25;;;11.00;99.90;;;;;;5024017;28;20238;-81
2021/11/07 11:11:41;;;;;;;8.23;5.97;;;11.40;99.90;;;;;;5025531;28;20194;-80
2021/11/07 11:30:23;;;;;;;7.97;5.47;;;11.50;99.90;;;;;;5025012;28;20210;-81
2021/11/07 11:35:31;;;;;;;9.95;5.57;;;11.80;99.90;;;;;;5007856;28;20207;-84
2021/11/07 11:38:04;;;;;;;6.72;5.70;;;11.50;99.90;;;;;;5025342;28;20230;-82
2021/11/07 11:43:17;;;;;;;8.10;6.28;;;11.50;99.90;;;;;;5023229;28;20210;-79
2021/11/07 11:45:53;;;;;;;10.93;6.03;;;11.30;99.90;;;;;;5023455;28;20500;-78
2021/11/07 11:49:13;;;;;;;5.80;5.20;;;11.10;99.90;;;;;;5015879;28;20202;-80
2021/11/07 12:01:08;;;;;;;7.28;5.20;;;10.60;99.90;;;;;;5026710;28;20530;-79
2021/11/07 12:05:54;;;;;;;7.70;6.22;;;10.50;99.90;;;;;;5027082;28;20423;-82
2021/11/07 12:08:58;;;;;;;6.70;5.80;;;10.50;99.90;;;;;;5027292;28;20205;-79
2021/11/07 12:11:52;;;;;;;12.30;6.88;;;10.50;99.90;;;;;;5022960;28;20528;-78
2021/11/07 12:14:18;;;;;;;6.25;5.53;;;10.60;99.90;;;;;;5024153;28;20443;-77
2021/11/07 12:17:04;;;;;;;8.48;5.60;;;10.60;99.90;;;;;;5027097;28;20199;-80
2021/11/07 12:19:43;;;;;;;7.28;5.38;;;10.50;99.90;;;;;;5026356;28;20205;-81
2021/11/07 12:22:21;;;;;;;14.95;4.60;;;10.50;99.90;;;;;;5019648;28;20197;-81
2021/11/07 12:24:49;;;;;;;7.40;5.80;;;10.50;99.90;;;;;;5014550;28;20381;-80
2021/11/07 12:27:41;;;;;;;8.13;5.45;;;10.40;99.90;;;;;;5023954;28;20210;-79
2021/11/07 12:30:14;;;;;;;6.47;5.00;;;10.40;99.90;;;;;;5017946;28;20538;-78
2021/11/07 12:32:44;;;;;;;9.13;6.00;;;10.40;99.90;;;;;;5026108;28;20215;-79
2021/11/07 12:35:24;;;;;;;8.75;4.78;;;10.40;99.90;;;;;;5008859;28;20202;-78
2021/11/07 12:40:48;;;;;;;8.88;5.40;;;10.40;99.90;;;;;;5026236;28;20204;-78
2021/11/07 12:43:22;;;;;;;6.80;5.35;;;10.40;99.90;;;;;;5017045;28;20201;-80
2021/11/07 12:45:58;;;;;;;5.93;5.15;;;10.50;99.90;;;;;;5006761;28;20270;-77
2021/11/07 12:48:53;;;;;;;8.23;6.47;;;10.50;99.90;;;;;;5018102;28;20202;-80
2021/11/07 12:51:33;;;;;;;7.55;6.18;;;10.60;99.90;;;;;;5025832;28;20225;-79
2021/11/07 12:54:04;;;;;;;11.80;6.47;;;10.60;99.90;;;;;;5008357;28;20261;-80
2021/11/07 12:56:36;;;;;;;8.23;5.85;;;10.30;99.90;;;;;;5007996;28;20263;-78
2021/11/07 12:59:07;;;;;;;8.85;6.82;;;10.20;99.90;;;;;;5008145;28;20347;-80
2021/11/07 13:01:54;;;;;;;10.05;6.55;;;10.10;99.90;;;;;;5000090;28;20241;-80
2021/11/07 13:04:23;;;;;;;7.47;5.00;;;10.20;99.90;;;;;;5008512;28;20202;-80
2021/11/07 13:06:56;;;;;;;9.05;6.38;;;10.30;99.90;;;;;;5025946;28;20205;-79
2021/11/07 13:09:34;;;;;;;7.03;5.15;;;10.40;99.90;;;;;;5025096;28;20211;-77
2021/11/07 13:12:10;;;;;;;11.20;6.57;;;10.30;99.90;;;;;;5009894;28;20200;-81
2021/11/07 13:15:22;;;;;;;5.35;4.80;;;10.20;99.90;;;;;;5020573;28;20255;-80
2021/11/07 13:18:24;;;;;;;6.88;5.72;;;10.10;99.90;;;;;;5017051;28;20317;-78
2021/11/07 13:26:38;;;;;;;8.13;5.50;;;10.10;99.90;;;;;;5018822;28;20485;-81
2021/11/07 13:29:16;;;;;;;6.60;5.78;;;10.10;99.90;;;;;;5015274;28;20285;-80
2021/11/07 13:32:01;;;;;;;6.95;6.25;;;10.00;99.90;;;;;;5016823;28;20233;-80
2021/11/07 13:34:29;;;;;;;6.95;5.90;;;9.90;99.90;;;;;;5014683;28;20490;-79
2021/11/07 13:36:59;;;;;;;7.65;5.15;;;9.80;99.90;;;;;;5022665;28;20431;-80
2021/11/07 13:39:30;;;;;;;6.18;4.32;;;9.90;99.90;;;;;;5022313;28;20240;-80
2021/11/07 13:42:12;;;;;;;6.72;5.18;;;9.80;99.90;;;;;;5024445;28;20193;-79
2021/11/07 13:44:59;;;;;;;6.22;5.57;;;9.80;99.90;;;;;;5024119;28;20295;-79
2021/11/07 13:47:40;;;;;;;5.40;4.07;;;9.80;99.90;;;;;;5022456;28;20193;-79
2021/11/07 13:50:19;;;;;;;5.05;4.65;;;9.80;99.90;;;;;;5024824;28;20383;-80
2021/11/07 13:52:46;;;;;;;5.68;4.65;;;9.70;99.90;;;;;;4999909;28;20355;-80
2021/11/07 13:55:21;;;;;;;6.22;4.65;;;9.70;99.90;;;;;;5024070;28;20268;-81
2021/11/07 13:57:48;;;;;;;7.82;4.53;;;9.80;99.90;;;;;;5024517;28;20209;-77
2021/11/07 14:00:20;;;;;;;5.93;5.28;;;9.80;99.90;;;;;;5021386;28;20194;-81
2021/11/07 14:02:53;;;;;;;6.70;5.88;;;9.70;99.90;;;;;;5006966;28;20193;-77
2021/11/07 14:05:22;;;;;;;4.90;4.40;;;9.60;99.90;;;;;;5011760;28;20257;-81
2021/11/07 14:08:01;;;;;;;6.85;5.05;;;9.60;99.90;;;;;;5024157;28;20201;-80
2021/11/07 14:10:30;;;;;;;5.57;4.00;;;9.60;99.90;;;;;;5008716;28;20216;-80
2021/11/07 14:12:59;;;;;;;4.80;4.05;;;9.60;99.90;;;;;;5023371;28;20565;-79
2021/11/07 14:15:31;;;;;;;6.20;4.32;;;9.70;99.90;;;;;;5024478;28;20200;-80
2021/11/07 14:18:21;;;;;;;8.05;6.07;;;9.70;99.90;;;;;;5006907;28;20209;-79
2021/11/07 14:20:57;;;;;;;5.82;3.90;;;9.70;99.90;;;;;;4988867;28;20194;-80
2021/11/07 14:26:26;;;;;;;7.03;5.15;;;9.30;99.90;;;;;;5024488;28;20495;-80
2021/11/07 14:32:02;;;;;;;8.60;4.63;;;9.40;99.90;;;;;;5024637;28;20202;-79
2021/11/07 14:34:35;;;;;;;7.35;6.18;;;9.60;99.90;;;;;;5025021;28;20209;-79
2021/11/07 14:37:09;;;;;;;6.78;4.97;;;9.50;99.90;;;;;;5024280;28;20407;-79
2021/11/07 14:40:07;;;;;;;7.50;4.90;;;9.40;99.90;;;;;;5011776;28;20280;-79
2021/11/07 15:05:04;;;;;;;9.10;5.47;;;9.50;99.90;;;;;;5024884;28;20604;-80
2021/11/07 15:07:40;;;;;;;8.50;6.00;;;9.60;99.90;;;;;;5029619;28;20711;-80
2021/11/07 15:13:04;;;;;;;8.50;6.15;;;9.60;99.90;;;;;;5018411;28;20197;-80
2021/11/07 15:15:41;;;;;;;8.30;6.85;;;9.70;99.90;;;;;;5016880;28;20414;-80
2021/11/07 15:18:44;;;;;;;8.85;6.82;;;9.30;99.90;;;;;;5021657;28;20236;-81
2021/11/07 15:21:30;;;;;;;8.35;6.40;;;9.40;99.90;;;;;;5005691;28;20197;-81
2021/11/07 15:24:01;;;;;;;8.60;5.90;;;9.20;99.90;;;;;;5010425;28;20219;-81
2021/11/07 15:26:36;;;;;;;10.00;6.30;;;9.00;99.90;;;;;;5005330;28;20206;-80
2021/11/07 15:29:09;;;;;;;7.28;6.35;;;8.90;99.90;;;;;;5006696;28;20204;-81
2021/11/07 15:31:39;;;;;;;9.00;6.60;;;9.00;99.90;;;;;;5005988;28;20308;-81
2021/11/07 15:34:26;;;;;;;7.78;6.35;;;8.90;99.90;;;;;;5006945;28;20209;-80
2021/11/07 15:36:58;;;;;;;8.85;6.40;;;9.00;99.90;;;;;;5023471;28;20209;-80
2021/11/07 15:39:27;;;;;;;8.50;6.45;;;8.90;99.90;;;;;;5022928;28;20240;-80
2021/11/07 15:42:05;;;;;;;11.48;8.20;;;9.00;99.90;;;;;;5007309;28;20193;-81
2021/11/07 15:44:46;;;;;;;7.32;6.63;;;9.00;99.90;;;;;;5024544;28;20200;-80
2021/11/07 15:47:28;;;;;;;10.13;7.93;;;9.00;99.90;;;;;;5021691;28;20280;-80
2021/11/07 15:57:58;;;;;;;10.65;8.70;;;8.80;99.90;;;;;;5019567;28;20204;-80
2021/11/07 16:05:57;;;;;;;7.63;6.82;;;8.90;99.90;;;;;;5023792;28;20208;-81
2021/11/07 16:11:54;;;;;;;12.90;7.95;;;8.80;99.90;;;;;;4953237;29;20435;-80
2021/11/07 16:17:07;;;;;;;14.02;9.90;;;8.80;99.90;;;;;;5007106;28;20217;-80
2021/11/07 16:19:36;;;;;;;14.85;8.95;;;8.60;99.90;;;;;;5005574;28;20216;-80
2021/11/07 16:22:04;;;;;;;13.52;9.82;;;8.60;99.90;;;;;;5022637;28;20244;-80
2021/11/07 16:24:32;;;;;;;9.27;8.32;;;8.60;99.90;;;;;;4989363;28;20201;-80